createdAt,value
2017-07-17T00:00:16.059Z,84.07
2017-07-17T00:00:42.197Z,83.88
2017-07-17T00:01:08.331Z,83.98
2017-07-17T00:01:34.488Z,84.55
2017-07-17T00:02:00.647Z,84.27
2017-07-17T00:02:26.782Z,83.88
2017-07-17T00:02:52.931Z,84.07
2017-07-17T00:03:19.078Z,83.98
2017-07-17T00:03:45.211Z,84.55
2017-07-17T00:04:11.358Z,84.46
2017-07-17T00:04:37.511Z,84.27
2017-07-17T00:05:03.642Z,84.55
2017-07-17T00:05:29.787Z,84.65
2017-07-17T00:05:55.939Z,84.36
2017-07-17T00:06:22.074Z,84.17
2017-07-17T00:06:48.216Z,84.17
2017-07-17T00:07:14.367Z,83.88
2017-07-17T00:07:40.505Z,83.69
2017-07-17T00:08:06.655Z,83.98
2017-07-17T00:08:32.786Z,84.07
2017-07-17T00:08:58.934Z,84.07
2017-07-17T00:09:25.089Z,84.46
2017-07-17T00:09:51.222Z,84.36
2017-07-17T00:10:17.375Z,84.17
2017-07-17T00:10:43.528Z,84.36
2017-07-17T00:11:09.662Z,83.88
2017-07-17T00:11:35.797Z,83.88
2017-07-17T00:12:01.951Z,84.55
2017-07-17T00:12:28.096Z,84.42
2017-07-17T00:12:54.234Z,84.8
2017-07-17T00:13:20.381Z,84.99
2017-07-17T00:13:46.520Z,85.03
2017-07-17T00:14:12.676Z,85.23
2017-07-17T00:14:38.815Z,85.19
2017-07-17T00:15:04.948Z,84.84
2017-07-17T00:15:31.107Z,84.84
2017-07-17T00:15:57.245Z,84.84
2017-07-17T00:16:23.382Z,84.9
2017-07-17T00:16:49.544Z,84.9
2017-07-17T00:17:15.704Z,84.94
2017-07-17T00:17:41.838Z,85.19
2017-07-17T00:18:07.987Z,85.19
2017-07-17T00:18:34.135Z,85.19
2017-07-17T00:19:00.274Z,85.61
2017-07-17T00:19:26.422Z,85.13
2017-07-17T00:19:52.550Z,85.67
2017-07-17T00:20:18.700Z,85.23
2017-07-17T00:20:44.846Z,85.33
2017-07-17T00:21:10.980Z,85.52
2017-07-17T00:21:37.127Z,85.61
2017-07-17T00:22:03.278Z,85.71
2017-07-17T00:22:29.432Z,85.61
2017-07-17T00:22:55.579Z,85.33
2017-07-17T00:23:21.728Z,85.33
2017-07-17T00:23:47.866Z,85.13
2017-07-17T00:24:14.006Z,85.23
2017-07-17T00:24:40.157Z,85.33
2017-07-17T00:25:06.297Z,85.33
2017-07-17T00:25:32.431Z,85.71
2017-07-17T00:25:58.589Z,85.23
2017-07-17T00:26:24.729Z,85.42
2017-07-17T00:26:50.862Z,85.23
2017-07-17T00:27:17.018Z,85.52
2017-07-17T00:27:43.162Z,85.71
2017-07-17T00:28:09.295Z,85.33
2017-07-17T00:28:35.444Z,85.03
2017-07-17T00:29:01.596Z,85.42
2017-07-17T00:29:27.727Z,85.33
2017-07-17T00:29:53.872Z,85.13
2017-07-17T00:30:20.009Z,85.23
2017-07-17T00:30:46.164Z,85.23
2017-07-17T00:31:12.306Z,84.94
2017-07-17T00:31:38.443Z,85.03
2017-07-17T00:32:04.590Z,85.71
2017-07-17T00:32:30.745Z,85.52
2017-07-17T00:32:56.875Z,86
2017-07-17T00:33:23.020Z,85.52
2017-07-17T00:33:49.174Z,85.33
2017-07-17T00:34:15.308Z,85.23
2017-07-17T00:34:41.449Z,85.03
2017-07-17T00:35:07.602Z,85.33
2017-07-17T00:35:33.744Z,85.52
2017-07-17T00:35:59.893Z,85.52
2017-07-17T00:36:26.036Z,85.52
2017-07-17T00:36:52.173Z,85.23
2017-07-17T00:37:18.326Z,85.61
2017-07-17T00:37:44.459Z,85.91
2017-07-17T00:38:10.599Z,85.61
2017-07-17T00:38:36.748Z,85.71
2017-07-17T00:39:02.891Z,85.91
2017-07-17T00:39:29.025Z,85.71
2017-07-17T00:39:55.184Z,86.19
2017-07-17T00:40:21.374Z,85.91
2017-07-17T00:40:47.460Z,86.1
2017-07-17T00:41:13.616Z,86.48
2017-07-17T00:41:39.748Z,86.19
2017-07-17T00:42:05.900Z,85.81
2017-07-17T00:42:32.056Z,86
2017-07-17T00:42:58.193Z,86
2017-07-17T00:43:24.349Z,85.91
2017-07-17T00:43:50.489Z,86.1
2017-07-17T00:44:16.622Z,86
2017-07-17T00:44:42.776Z,86.87
2017-07-17T00:45:08.917Z,86.19
2017-07-17T00:45:35.054Z,86.29
2017-07-17T00:46:01.200Z,86.48
2017-07-17T00:46:27.354Z,86.68
2017-07-17T00:46:53.493Z,86.96
2017-07-17T00:47:19.633Z,86.87
2017-07-17T00:47:45.767Z,86.87
2017-07-17T00:48:11.922Z,86.87
2017-07-17T00:48:38.068Z,87.16
2017-07-17T00:49:04.198Z,86.77
2017-07-17T00:49:30.344Z,87.16
2017-07-17T00:49:56.497Z,86.48
2017-07-17T00:50:22.626Z,86.87
2017-07-17T00:50:48.772Z,86.77
2017-07-17T00:51:14.923Z,86.87
2017-07-17T00:51:41.062Z,86.87
2017-07-17T00:52:07.203Z,86.77
2017-07-17T00:52:33.339Z,87.21
2017-07-17T00:52:59.484Z,87.12
2017-07-17T00:53:25.636Z,87.16
2017-07-17T00:53:51.768Z,87.26
2017-07-17T00:54:17.951Z,86.68
2017-07-17T00:54:44.069Z,87.06
2017-07-17T00:55:10.202Z,87.21
2017-07-17T00:55:36.343Z,87.4
2017-07-17T00:56:02.494Z,87.64
2017-07-17T00:56:28.640Z,87.5
2017-07-17T00:56:54.771Z,87.5
2017-07-17T00:57:20.928Z,87.79
2017-07-17T00:57:47.068Z,87.4
2017-07-17T00:58:13.222Z,87.7
2017-07-17T00:58:39.356Z,88.17
2017-07-17T00:59:05.496Z,88.02
2017-07-17T00:59:31.647Z,88.17
2017-07-17T00:59:57.789Z,88.27
2017-07-17T01:00:23.923Z,87.88
2017-07-17T01:00:50.076Z,87.6
2017-07-17T01:01:16.215Z,87.74
2017-07-17T01:01:42.351Z,87.02
2017-07-17T01:02:08.504Z,86.35
2017-07-17T01:02:34.651Z,86.82
2017-07-17T01:03:00.785Z,87.02
2017-07-17T01:03:26.937Z,87.12
2017-07-17T01:03:53.070Z,87.12
2017-07-17T01:04:19.220Z,86.82
2017-07-17T01:04:45.363Z,86.73
2017-07-17T01:05:11.500Z,86.35
2017-07-17T01:05:37.654Z,86.35
2017-07-17T01:06:03.800Z,86.92
2017-07-17T01:06:29.936Z,86.63
2017-07-17T01:06:56.084Z,86.35
2017-07-17T01:07:22.235Z,86.92
2017-07-17T01:07:48.365Z,86.82
2017-07-17T01:08:14.511Z,86.54
2017-07-17T01:08:40.669Z,86.63
2017-07-17T01:09:06.807Z,86.35
2017-07-17T01:09:32.949Z,86.25
2017-07-17T01:09:59.097Z,87.12
2017-07-17T01:10:25.233Z,86.44
2017-07-17T01:10:51.367Z,86.54
2017-07-17T01:11:17.524Z,86.63
2017-07-17T01:11:43.664Z,86.63
2017-07-17T01:12:09.798Z,86.54
2017-07-17T01:12:35.952Z,86.44
2017-07-17T01:13:02.096Z,86.54
2017-07-17T01:13:28.235Z,86.44
2017-07-17T01:13:54.380Z,85.96
2017-07-17T01:14:20.534Z,86.05
2017-07-17T01:14:46.669Z,85.77
2017-07-17T01:15:12.814Z,85.67
2017-07-17T01:15:38.955Z,85.67
2017-07-17T01:16:05.127Z,86.05
2017-07-17T01:16:31.272Z,85.96
2017-07-17T01:16:57.409Z,85.86
2017-07-17T01:17:23.560Z,85.67
2017-07-17T01:17:49.709Z,86.25
2017-07-17T01:18:15.845Z,86.44
2017-07-17T01:18:41.991Z,86.44
2017-07-17T01:19:08.146Z,86.63
2017-07-17T01:19:34.274Z,86.25
2017-07-17T01:20:00.417Z,85.96
2017-07-17T01:20:26.561Z,86.15
2017-07-17T01:20:52.710Z,85.96
2017-07-17T01:21:18.860Z,86.05
2017-07-17T01:21:44.993Z,86.05
2017-07-17T01:22:11.136Z,86.15
2017-07-17T01:22:37.282Z,86.05
2017-07-17T01:23:03.417Z,85.77
2017-07-17T01:23:29.560Z,85.86
2017-07-17T01:23:55.713Z,85.77
2017-07-17T01:24:21.848Z,86.25
2017-07-17T01:24:47.986Z,86.25
2017-07-17T01:25:14.139Z,86.82
2017-07-17T01:25:40.283Z,86.25
2017-07-17T01:26:06.430Z,86.15
2017-07-17T01:26:32.569Z,86.44
2017-07-17T01:26:58.709Z,86.35
2017-07-17T01:27:24.864Z,86.44
2017-07-17T01:27:51.000Z,86.63
2017-07-17T01:28:17.136Z,86.73
2017-07-17T01:28:43.290Z,86.25
2017-07-17T01:29:09.430Z,86.44
2017-07-17T01:29:35.563Z,86.44
2017-07-17T01:30:01.714Z,86.44
2017-07-17T01:30:27.885Z,86.54
2017-07-17T01:30:54.023Z,86.44
2017-07-17T01:31:20.173Z,86.15
2017-07-17T01:31:46.306Z,86.54
2017-07-17T01:32:12.488Z,86.92
2017-07-17T01:32:38.633Z,87.21
2017-07-17T01:33:04.769Z,87.02
2017-07-17T01:33:30.923Z,87.21
2017-07-17T01:33:57.066Z,86.92
2017-07-17T01:34:23.227Z,87.3
2017-07-17T01:34:49.376Z,86.73
2017-07-17T01:35:15.524Z,86.82
2017-07-17T01:35:41.658Z,86.63
2017-07-17T01:36:07.802Z,86.73
2017-07-17T01:36:33.955Z,86.63
2017-07-17T01:37:00.087Z,86.63
2017-07-17T01:37:26.238Z,86.73
2017-07-17T01:37:52.376Z,86.35
2017-07-17T01:38:18.527Z,87.02
2017-07-17T01:38:44.672Z,87.02
2017-07-17T01:39:10.804Z,87.02
2017-07-17T01:39:36.946Z,87.02
2017-07-17T01:40:03.098Z,86.92
2017-07-17T01:40:29.232Z,86.82
2017-07-17T01:40:55.373Z,86.54
2017-07-17T01:41:21.523Z,86.35
2017-07-17T01:41:47.667Z,86.54
2017-07-17T01:42:13.822Z,87.02
2017-07-17T01:42:39.973Z,86.82
2017-07-17T01:43:06.119Z,86.73
2017-07-17T01:43:32.295Z,86.63
2017-07-17T01:43:58.433Z,86.92
2017-07-17T01:44:24.578Z,87.02
2017-07-17T01:44:50.725Z,86.82
2017-07-17T01:45:16.865Z,87.12
2017-07-17T01:45:43.002Z,87.3
2017-07-17T01:46:09.153Z,87.02
2017-07-17T01:46:35.299Z,87.12
2017-07-17T01:47:01.432Z,87.02
2017-07-17T01:47:27.586Z,87.4
2017-07-17T01:47:53.729Z,87.21
2017-07-17T01:48:19.877Z,86.82
2017-07-17T01:48:46.015Z,86.73
2017-07-17T01:49:12.152Z,87.02
2017-07-17T01:49:38.308Z,86.73
2017-07-17T01:50:04.449Z,87.02
2017-07-17T01:50:30.585Z,87.02
2017-07-17T01:50:56.734Z,87.21
2017-07-17T01:51:22.902Z,87.12
2017-07-17T01:51:49.040Z,87.02
2017-07-17T01:52:15.189Z,87.6
2017-07-17T01:52:41.337Z,87.6
2017-07-17T01:53:07.471Z,87.88
2017-07-17T01:53:33.612Z,87.7
2017-07-17T01:53:59.761Z,87.21
2017-07-17T01:54:25.898Z,87.12
2017-07-17T01:54:52.038Z,87.5
2017-07-17T01:55:18.190Z,87.12
2017-07-17T01:55:44.327Z,87.12
2017-07-17T01:56:10.464Z,87.21
2017-07-17T01:56:36.616Z,87.02
2017-07-17T01:57:02.759Z,87.12
2017-07-17T01:57:28.899Z,87.21
2017-07-17T01:57:55.049Z,87.4
2017-07-17T01:58:21.193Z,87.21
2017-07-17T01:58:47.354Z,87.21
2017-07-17T01:59:13.505Z,87.12
2017-07-17T01:59:39.641Z,87.3
2017-07-17T02:00:05.798Z,87.02
2017-07-17T02:00:31.940Z,86.73
2017-07-17T02:00:58.077Z,87.21
2017-07-17T02:01:24.226Z,87.12
2017-07-17T02:01:50.371Z,87.21
2017-07-17T02:02:16.503Z,87.21
2017-07-17T02:02:42.650Z,87.12
2017-07-17T02:03:08.802Z,87.79
2017-07-17T02:03:34.934Z,87.79
2017-07-17T02:04:01.085Z,87.3
2017-07-17T02:04:27.229Z,87.3
2017-07-17T02:04:53.366Z,87.79
2017-07-17T02:05:19.514Z,87.5
2017-07-17T02:05:45.647Z,87.5
2017-07-17T02:06:11.791Z,87.7
2017-07-17T02:06:37.945Z,87.7
2017-07-17T02:07:04.075Z,87.6
2017-07-17T02:07:30.218Z,87.3
2017-07-17T02:07:56.366Z,87.02
2017-07-17T02:08:22.503Z,87.02
2017-07-17T02:08:48.641Z,87.21
2017-07-17T02:09:14.762Z,87.02
2017-07-17T02:09:40.891Z,87.02
2017-07-17T02:10:07.022Z,87.02
2017-07-17T02:10:33.139Z,87.4
2017-07-17T02:10:59.263Z,87.3
2017-07-17T02:11:25.378Z,87.7
2017-07-17T02:11:51.511Z,87.4
2017-07-17T02:12:17.637Z,87.3
2017-07-17T02:12:43.753Z,87.02
2017-07-17T02:13:09.884Z,87.4
2017-07-17T02:13:36.038Z,86.92
2017-07-17T02:14:02.151Z,87.12
2017-07-17T02:14:28.279Z,87.4
2017-07-17T02:14:54.414Z,87.21
2017-07-17T02:15:20.528Z,87.21
2017-07-17T02:15:46.651Z,87.12
2017-07-17T02:16:12.773Z,87.6
2017-07-17T02:16:38.901Z,87.3
2017-07-17T02:17:05.032Z,87.88
2017-07-17T02:17:31.146Z,87.5
2017-07-17T02:17:57.272Z,88.27
2017-07-17T02:18:23.405Z,87.98
2017-07-17T02:18:49.523Z,88.04
2017-07-17T02:19:15.647Z,88.32
2017-07-17T02:19:41.780Z,88.81
2017-07-17T02:20:07.900Z,88.51
2017-07-17T02:20:34.018Z,88.9
2017-07-17T02:21:00.154Z,89
2017-07-17T02:21:26.279Z,88.9
2017-07-17T02:21:52.408Z,89.48
2017-07-17T02:22:18.525Z,89.67
2017-07-17T02:22:44.649Z,89
2017-07-17T02:23:10.785Z,88.42
2017-07-17T02:23:36.906Z,88.9
2017-07-17T02:24:03.024Z,88.61
2017-07-17T02:24:29.161Z,88.81
2017-07-17T02:24:55.282Z,89.04
2017-07-17T02:25:21.402Z,88.71
2017-07-17T02:25:47.534Z,88.23
2017-07-17T02:26:13.663Z,87.84
2017-07-17T02:26:39.781Z,88.51
2017-07-17T02:27:05.910Z,88.27
2017-07-17T02:27:32.027Z,88.27
2017-07-17T02:27:58.164Z,88.71
2017-07-17T02:28:24.288Z,88.81
2017-07-17T02:28:50.404Z,89.77
2017-07-17T02:29:16.576Z,89.19
2017-07-17T02:29:42.664Z,89.29
2017-07-17T02:30:08.780Z,89.48
2017-07-17T02:30:34.909Z,89.48
2017-07-17T02:31:01.041Z,88.81
2017-07-17T02:31:27.153Z,88.75
2017-07-17T02:31:53.280Z,88.08
2017-07-17T02:32:19.412Z,88.75
2017-07-17T02:32:45.529Z,88.56
2017-07-17T02:33:11.656Z,88.08
2017-07-17T02:33:37.773Z,88.37
2017-07-17T02:34:03.901Z,88.08
2017-07-17T02:34:30.030Z,88.08
2017-07-17T02:34:56.145Z,88.27
2017-07-17T02:35:22.271Z,88.27
2017-07-17T02:35:48.405Z,88.56
2017-07-17T02:36:14.518Z,87.98
2017-07-17T02:36:40.642Z,88.37
2017-07-17T02:37:06.772Z,88.23
2017-07-17T02:37:32.892Z,88.71
2017-07-17T02:37:59.008Z,89
2017-07-17T02:38:25.146Z,88.42
2017-07-17T02:38:51.267Z,88.71
2017-07-17T02:39:17.386Z,88.61
2017-07-17T02:39:43.518Z,88.65
2017-07-17T02:40:09.647Z,89.04
2017-07-17T02:40:35.761Z,89.23
2017-07-17T02:41:01.913Z,89.62
2017-07-17T02:41:28.045Z,88.75
2017-07-17T02:41:54.158Z,88.46
2017-07-17T02:42:20.284Z,88.17
2017-07-17T02:42:46.416Z,88.75
2017-07-17T02:43:12.532Z,88.27
2017-07-17T02:43:38.654Z,88.85
2017-07-17T02:44:04.780Z,88.95
2017-07-17T02:44:30.910Z,88.85
2017-07-17T02:44:57.049Z,88.95
2017-07-17T02:45:23.156Z,88.61
2017-07-17T02:45:49.384Z,89.09
2017-07-17T02:46:15.521Z,89.81
2017-07-17T02:46:41.637Z,88.61
2017-07-17T02:47:07.756Z,88.81
2017-07-17T02:47:33.889Z,88.95
2017-07-17T02:48:00.011Z,89.58
2017-07-17T02:48:26.128Z,89.29
2017-07-17T02:48:52.263Z,89.39
2017-07-17T02:49:18.386Z,89.48
2017-07-17T02:49:44.514Z,89.29
2017-07-17T02:50:10.631Z,89.58
2017-07-17T02:50:36.753Z,89.67
2017-07-17T02:51:02.884Z,88.81
2017-07-17T02:51:29.004Z,89.29
2017-07-17T02:51:55.119Z,89
2017-07-17T02:52:21.258Z,88.51
2017-07-17T02:52:47.382Z,89.77
2017-07-17T02:53:13.498Z,89.39
2017-07-17T02:53:39.630Z,89.19
2017-07-17T02:54:05.755Z,89.19
2017-07-17T02:54:31.870Z,89
2017-07-17T02:54:58.000Z,89.39
2017-07-17T02:55:24.117Z,89.14
2017-07-17T02:55:50.253Z,89.29
2017-07-17T02:56:16.375Z,89.33
2017-07-17T02:56:42.492Z,89.53
2017-07-17T02:57:08.625Z,89.62
2017-07-17T02:57:34.752Z,89.48
2017-07-17T02:58:00.870Z,88.56
2017-07-17T02:58:26.999Z,88.65
2017-07-17T02:58:53.133Z,88.61
2017-07-17T02:59:19.246Z,88.85
2017-07-17T02:59:45.373Z,88.51
2017-07-17T03:00:11.507Z,88.9
2017-07-17T03:00:37.625Z,88.04
2017-07-17T03:01:03.754Z,88.42
2017-07-17T03:01:29.871Z,88.51
2017-07-17T03:01:55.999Z,88.04
2017-07-17T03:02:22.129Z,88.32
2017-07-17T03:02:48.245Z,88.13
2017-07-17T03:03:14.369Z,87.84
2017-07-17T03:03:40.503Z,88.51
2017-07-17T03:04:06.617Z,88.23
2017-07-17T03:04:32.740Z,89
2017-07-17T03:04:58.874Z,88.61
2017-07-17T03:05:24.995Z,88.9
2017-07-17T03:05:51.113Z,88.13
2017-07-17T03:06:17.242Z,88.51
2017-07-17T03:06:43.369Z,88.04
2017-07-17T03:07:09.499Z,88.42
2017-07-17T03:07:35.616Z,88.51
2017-07-17T03:08:01.740Z,88.71
2017-07-17T03:08:27.872Z,88.04
2017-07-17T03:08:53.991Z,87.94
2017-07-17T03:09:20.108Z,88.13
2017-07-17T03:09:46.245Z,88.13
2017-07-17T03:10:12.370Z,87.84
2017-07-17T03:10:38.486Z,88.23
2017-07-17T03:11:04.619Z,88.51
2017-07-17T03:11:30.745Z,88.42
2017-07-17T03:11:56.873Z,88.61
2017-07-17T03:12:22.992Z,89.09
2017-07-17T03:12:49.110Z,89.77
2017-07-17T03:13:15.246Z,88.9
2017-07-17T03:13:41.416Z,88.71
2017-07-17T03:14:07.486Z,88.51
2017-07-17T03:14:33.616Z,89
2017-07-17T03:14:59.742Z,88.51
2017-07-17T03:15:25.899Z,88.13
2017-07-17T03:15:52.028Z,88.81
2017-07-17T03:16:18.160Z,88.04
2017-07-17T03:16:44.274Z,88.42
2017-07-17T03:17:10.400Z,88.04
2017-07-17T03:17:36.521Z,88.13
2017-07-17T03:18:02.653Z,88.51
2017-07-17T03:18:28.776Z,88.9
2017-07-17T03:18:54.894Z,88.61
2017-07-17T03:19:21.022Z,88.71
2017-07-17T03:19:47.156Z,88.23
2017-07-17T03:20:13.270Z,88.13
2017-07-17T03:20:39.398Z,87.65
2017-07-17T03:21:05.530Z,87.84
2017-07-17T03:21:31.647Z,87.74
2017-07-17T03:21:57.771Z,87.94
2017-07-17T03:22:23.904Z,87.55
2017-07-17T03:22:50.024Z,87.46
2017-07-17T03:23:16.140Z,87.36
2017-07-17T03:23:42.278Z,88.04
2017-07-17T03:24:08.403Z,87.74
2017-07-17T03:24:34.517Z,87.65
2017-07-17T03:25:00.650Z,87.46
2017-07-17T03:25:26.780Z,87.46
2017-07-17T03:25:52.898Z,87.46
2017-07-17T03:26:19.026Z,87.46
2017-07-17T03:26:45.159Z,87.36
2017-07-17T03:27:11.272Z,87.84
2017-07-17T03:27:37.398Z,87.36
2017-07-17T03:28:03.531Z,86.98
2017-07-17T03:28:29.649Z,86.98
2017-07-17T03:28:55.775Z,86.98
2017-07-17T03:29:21.928Z,86.49
2017-07-17T03:29:48.022Z,86.59
2017-07-17T03:30:14.155Z,86.69
2017-07-17T03:30:40.270Z,86.88
2017-07-17T03:31:06.396Z,86.78
2017-07-17T03:31:32.529Z,86.88
2017-07-17T03:31:58.646Z,86.98
2017-07-17T03:32:24.770Z,86.78
2017-07-17T03:32:50.905Z,86.4
2017-07-17T03:33:17.026Z,86.59
2017-07-17T03:33:43.144Z,86.78
2017-07-17T03:34:09.273Z,86.78
2017-07-17T03:34:35.400Z,86.3
2017-07-17T03:35:01.532Z,86.49
2017-07-17T03:35:27.649Z,86.3
2017-07-17T03:35:53.772Z,86.4
2017-07-17T03:36:19.902Z,86.59
2017-07-17T03:36:46.020Z,86.59
2017-07-17T03:37:12.135Z,85.72
2017-07-17T03:37:38.271Z,85.82
2017-07-17T03:38:04.397Z,85.82
2017-07-17T03:38:30.514Z,85.72
2017-07-17T03:38:56.646Z,85.63
2017-07-17T03:39:22.773Z,86.01
2017-07-17T03:39:48.900Z,86.11
2017-07-17T03:40:15.020Z,85.91
2017-07-17T03:40:41.138Z,85.91
2017-07-17T03:41:07.274Z,85.91
2017-07-17T03:41:33.399Z,85.53
2017-07-17T03:41:59.520Z,86.11
2017-07-17T03:42:25.649Z,85.82
2017-07-17T03:42:51.776Z,85.63
2017-07-17T03:43:17.913Z,85.82
2017-07-17T03:43:44.042Z,85.72
2017-07-17T03:44:10.173Z,84.86
2017-07-17T03:44:36.287Z,85.34
2017-07-17T03:45:02.412Z,85.14
2017-07-17T03:45:28.533Z,85.91
2017-07-17T03:45:54.666Z,85.72
2017-07-17T03:46:20.791Z,85.63
2017-07-17T03:46:46.908Z,85.72
2017-07-17T03:47:13.038Z,85.24
2017-07-17T03:47:39.172Z,85.34
2017-07-17T03:48:05.285Z,85.53
2017-07-17T03:48:31.412Z,85.24
2017-07-17T03:48:57.546Z,85.05
2017-07-17T03:49:23.662Z,85.24
2017-07-17T03:49:49.785Z,84.95
2017-07-17T03:50:15.914Z,85.43
2017-07-17T03:50:42.054Z,85.05
2017-07-17T03:51:08.187Z,85.14
2017-07-17T03:51:34.303Z,85.05
2017-07-17T03:52:00.429Z,85.05
2017-07-17T03:52:26.561Z,85.24
2017-07-17T03:52:52.677Z,84.95
2017-07-17T03:53:18.799Z,85.14
2017-07-17T03:53:44.930Z,84.95
2017-07-17T03:54:11.048Z,84.95
2017-07-17T03:54:37.163Z,85.14
2017-07-17T03:55:03.300Z,84.86
2017-07-17T03:55:29.425Z,84.86
2017-07-17T03:55:55.542Z,84.56
2017-07-17T03:56:21.674Z,84.66
2017-07-17T03:56:47.796Z,84.66
2017-07-17T03:57:13.930Z,84.86
2017-07-17T03:57:40.049Z,84.66
2017-07-17T03:58:06.168Z,84.91
2017-07-17T03:58:32.304Z,84.95
2017-07-17T03:58:58.426Z,84.47
2017-07-17T03:59:24.543Z,84.76
2017-07-17T03:59:50.676Z,84.47
2017-07-17T04:00:16.803Z,84.56
2017-07-17T04:00:42.919Z,84.47
2017-07-17T04:01:09.047Z,84.95
2017-07-17T04:01:35.177Z,84.95
2017-07-17T04:02:01.296Z,84.76
2017-07-17T04:02:27.419Z,84.38
2017-07-17T04:02:53.537Z,84.66
2017-07-17T04:03:19.670Z,84.38
2017-07-17T04:03:45.798Z,84.47
2017-07-17T04:04:11.914Z,84.47
2017-07-17T04:04:38.043Z,84.28
2017-07-17T04:05:04.176Z,84.56
2017-07-17T04:05:30.291Z,84.76
2017-07-17T04:05:56.418Z,84.86
2017-07-17T04:06:22.551Z,84.66
2017-07-17T04:06:48.697Z,84.56
2017-07-17T04:07:14.790Z,84.66
2017-07-17T04:07:40.921Z,84.38
2017-07-17T04:08:07.044Z,84.56
2017-07-17T04:08:33.158Z,84.28
2017-07-17T04:08:59.293Z,84.43
2017-07-17T04:09:25.416Z,84.28
2017-07-17T04:09:51.530Z,84.18
2017-07-17T04:10:17.665Z,84.86
2017-07-17T04:10:43.812Z,84.28
2017-07-17T04:11:09.928Z,83.7
2017-07-17T04:11:36.057Z,83.99
2017-07-17T04:12:02.195Z,84.18
2017-07-17T04:12:28.304Z,84.38
2017-07-17T04:12:54.433Z,84.28
2017-07-17T04:13:20.571Z,84.56
2017-07-17T04:13:46.703Z,84.09
2017-07-17T04:14:12.828Z,83.89
2017-07-17T04:14:38.944Z,83.89
2017-07-17T04:15:05.076Z,83.99
2017-07-17T04:15:31.210Z,83.7
2017-07-17T04:15:57.324Z,83.85
2017-07-17T04:16:23.450Z,83.85
2017-07-17T04:16:49.582Z,83.85
2017-07-17T04:17:15.699Z,83.95
2017-07-17T04:17:41.823Z,84.05
2017-07-17T04:18:07.958Z,83.89
2017-07-17T04:18:34.082Z,83.75
2017-07-17T04:19:00.212Z,83.85
2017-07-17T04:19:26.327Z,83.95
2017-07-17T04:19:52.455Z,83.95
2017-07-17T04:20:18.588Z,83.66
2017-07-17T04:20:44.703Z,83.85
2017-07-17T04:21:10.826Z,83.37
2017-07-17T04:21:36.960Z,83.28
2017-07-17T04:22:03.079Z,83.47
2017-07-17T04:22:29.197Z,83.56
2017-07-17T04:22:55.330Z,84.33
2017-07-17T04:23:21.450Z,84.72
2017-07-17T04:23:47.567Z,85.2
2017-07-17T04:24:13.699Z,85.1
2017-07-17T04:24:39.819Z,85.2
2017-07-17T04:25:05.952Z,84.43
2017-07-17T04:25:32.073Z,84.39
2017-07-17T04:25:58.189Z,85.1
2017-07-17T04:26:24.323Z,85.58
2017-07-17T04:26:50.444Z,85.39
2017-07-17T04:27:16.559Z,84.97
2017-07-17T04:27:42.693Z,85.06
2017-07-17T04:28:08.821Z,84.53
2017-07-17T04:28:34.937Z,85.1
2017-07-17T04:29:01.067Z,84.81
2017-07-17T04:29:27.202Z,85.1
2017-07-17T04:29:53.321Z,84.43
2017-07-17T04:30:19.445Z,84.33
2017-07-17T04:30:45.562Z,84.72
2017-07-17T04:31:11.718Z,84.53
2017-07-17T04:31:37.843Z,84.72
2017-07-17T04:32:03.961Z,84.14
2017-07-17T04:32:30.091Z,84.33
2017-07-17T04:32:56.224Z,84.43
2017-07-17T04:33:22.337Z,84.23
2017-07-17T04:33:48.464Z,84.33
2017-07-17T04:34:14.594Z,84.33
2017-07-17T04:34:40.711Z,84.05
2017-07-17T04:35:06.834Z,83.75
2017-07-17T04:35:32.957Z,84.14
2017-07-17T04:35:59.087Z,83.95
2017-07-17T04:36:25.218Z,84.33
2017-07-17T04:36:51.332Z,83.85
2017-07-17T04:37:17.457Z,83.85
2017-07-17T04:37:43.591Z,84.33
2017-07-17T04:38:09.707Z,84.14
2017-07-17T04:38:35.834Z,84.43
2017-07-17T04:39:01.963Z,84.05
2017-07-17T04:39:28.083Z,83.56
2017-07-17T04:39:54.198Z,83.37
2017-07-17T04:40:20.333Z,83.75
2017-07-17T04:40:46.464Z,84.05
2017-07-17T04:41:12.584Z,83.95
2017-07-17T04:41:38.701Z,84.43
2017-07-17T04:42:04.824Z,84.23
2017-07-17T04:42:30.953Z,84.14
2017-07-17T04:42:57.076Z,84.91
2017-07-17T04:43:23.188Z,84.72
2017-07-17T04:43:49.324Z,84.33
2017-07-17T04:44:15.449Z,84.43
2017-07-17T04:44:41.566Z,84.23
2017-07-17T04:45:07.699Z,83.95
2017-07-17T04:45:33.824Z,83.95
2017-07-17T04:45:59.940Z,84.14
2017-07-17T04:46:26.070Z,83.85
2017-07-17T04:46:52.188Z,84.14
2017-07-17T04:47:18.323Z,84.14
2017-07-17T04:47:44.444Z,84.14
2017-07-17T04:48:10.579Z,84.14
2017-07-17T04:48:36.712Z,83.95
2017-07-17T04:49:02.837Z,84.14
2017-07-17T04:49:28.954Z,84.05
2017-07-17T04:49:55.087Z,83.85
2017-07-17T04:50:21.220Z,83.75
2017-07-17T04:50:47.335Z,83.85
2017-07-17T04:51:13.461Z,83.56
2017-07-17T04:51:39.593Z,83.66
2017-07-17T04:52:05.711Z,83.61
2017-07-17T04:52:31.831Z,83.47
2017-07-17T04:52:57.963Z,83.18
2017-07-17T04:53:24.092Z,83.08
2017-07-17T04:53:50.200Z,83.18
2017-07-17T04:54:16.336Z,83.37
2017-07-17T04:54:42.459Z,82.79
2017-07-17T04:55:08.577Z,83.47
2017-07-17T04:55:34.710Z,83.66
2017-07-17T04:56:00.836Z,83.56
2017-07-17T04:56:26.953Z,83.75
2017-07-17T04:56:53.082Z,83.56
2017-07-17T04:57:19.215Z,83.66
2017-07-17T04:57:45.336Z,83.75
2017-07-17T04:58:11.460Z,83.47
2017-07-17T04:58:37.581Z,83.28
2017-07-17T04:59:03.735Z,83.47
2017-07-17T04:59:29.862Z,83.75
2017-07-17T04:59:55.980Z,83.18
2017-07-17T05:00:22.109Z,83.28
2017-07-17T05:00:48.242Z,83.75
2017-07-17T05:01:14.356Z,83.47
2017-07-17T05:01:40.482Z,83.56
2017-07-17T05:02:06.617Z,83.37
2017-07-17T05:02:32.735Z,83.56
2017-07-17T05:02:58.858Z,83.18
2017-07-17T05:03:24.982Z,83.28
2017-07-17T05:03:51.111Z,83.28
2017-07-17T05:04:17.245Z,83.47
2017-07-17T05:04:43.357Z,83.28
2017-07-17T05:05:09.484Z,82.98
2017-07-17T05:05:35.614Z,83.51
2017-07-17T05:06:01.729Z,82.64
2017-07-17T05:06:27.853Z,82.74
2017-07-17T05:06:53.985Z,82.64
2017-07-17T05:07:20.105Z,82.93
2017-07-17T05:07:46.221Z,82.35
2017-07-17T05:08:12.358Z,82.26
2017-07-17T05:08:38.482Z,81.48
2017-07-17T05:09:04.611Z,81.48
2017-07-17T05:09:30.730Z,81.52
2017-07-17T05:09:56.851Z,81.24
2017-07-17T05:10:22.982Z,81.24
2017-07-17T05:10:49.101Z,81.04
2017-07-17T05:11:15.237Z,81.33
2017-07-17T05:11:41.373Z,80.66
2017-07-17T05:12:07.498Z,80.56
2017-07-17T05:12:33.616Z,80.56
2017-07-17T05:12:59.745Z,80.27
2017-07-17T05:13:25.872Z,80.18
2017-07-17T05:13:51.995Z,80.27
2017-07-17T05:14:18.124Z,80.18
2017-07-17T05:14:44.243Z,80.56
2017-07-17T05:15:10.380Z,80.37
2017-07-17T05:15:36.503Z,80.76
2017-07-17T05:16:02.619Z,79.98
2017-07-17T05:16:28.750Z,80.46
2017-07-17T05:16:54.875Z,79.89
2017-07-17T05:17:20.992Z,79.98
2017-07-17T05:17:47.122Z,80.37
2017-07-17T05:18:13.256Z,80.46
2017-07-17T05:18:39.370Z,80.37
2017-07-17T05:19:05.497Z,80.37
2017-07-17T05:19:31.631Z,79.98
2017-07-17T05:19:57.747Z,80.46
2017-07-17T05:20:23.878Z,80.37
2017-07-17T05:20:49.994Z,79.79
2017-07-17T05:21:16.126Z,79.79
2017-07-17T05:21:42.258Z,79.6
2017-07-17T05:22:08.372Z,79.41
2017-07-17T05:22:34.496Z,79.02
2017-07-17T05:23:00.629Z,79.6
2017-07-17T05:23:26.745Z,79.5
2017-07-17T05:23:52.869Z,79.69
2017-07-17T05:24:19.002Z,79.69
2017-07-17T05:24:45.122Z,78.92
2017-07-17T05:25:11.389Z,78.06
2017-07-17T05:25:37.518Z,78.73
2017-07-17T05:26:03.644Z,78.25
2017-07-17T05:26:29.776Z,78.06
2017-07-17T05:26:55.892Z,78.44
2017-07-17T05:27:22.033Z,78.63
2017-07-17T05:27:48.172Z,78.25
2017-07-17T05:28:14.312Z,78.44
2017-07-17T05:28:40.429Z,78.06
2017-07-17T05:29:06.575Z,78.25
2017-07-17T05:29:32.696Z,77.67
2017-07-17T05:29:58.825Z,77.48
2017-07-17T05:30:24.967Z,77.76
2017-07-17T05:30:51.091Z,77.38
2017-07-17T05:31:17.240Z,78.15
2017-07-17T05:31:43.360Z,77.58
2017-07-17T05:32:09.476Z,77.67
2017-07-17T05:32:35.613Z,78.02
2017-07-17T05:33:01.737Z,78.11
2017-07-17T05:33:27.854Z,78.4
2017-07-17T05:33:53.985Z,78.88
2017-07-17T05:34:20.111Z,78.88
2017-07-17T05:34:46.229Z,79.27
2017-07-17T05:35:12.358Z,79.46
2017-07-17T05:35:38.490Z,79.36
2017-07-17T05:36:04.604Z,79.46
2017-07-17T05:36:30.731Z,79.94
2017-07-17T05:36:56.866Z,79.36
2017-07-17T05:37:22.983Z,79.36
2017-07-17T05:37:49.107Z,79.66